sensor_id;sensor_type;location;lat;lon;timestamp;temperature;humidity
14016;DHT22;7083;48.854;9.158;2023-05-10T07:21:30;18.50;99.90
14016;DHT22;7083;48.854;9.158;2023-05-10T07:23:57;14.40;99.90
14016;DHT22;7083;48.854;9.158;2023-05-10T07:26:25;14.30;99.90
14016;DHT22;7083;48.854;9.158;2023-05-10T07:28:51;14.30;99.90
14016;DHT22;7083;48.854;9.158;2023-05-10T07:31:18;14.40;99.90
14016;DHT22;7083;48.854;9.158;2023-05-10T07:38:40;14.50;99.90
14016;DHT22;7083;48.854;9.158;2023-05-10T07:41:06;14.50;99.90
14016;DHT22;7083;48.854;9.158;2023-05-10T07:53:22;14.60;99.90
14016;DHT22;7083;48.854;9.158;2023-05-10T07:55:50;14.30;99.90
14016;DHT22;7083;48.854;9.158;2023-05-10T07:58:17;14.30;99.90
14016;DHT22;7083;48.854;9.158;2023-05-10T08:00:43;14.20;99.90
14016;DHT22;7083;48.854;9.158;2023-05-10T08:05:37;14.20;99.90
14016;DHT22;7083;48.854;9.158;2023-05-10T08:47:25;14.20;99.90
14016;DHT22;7083;48.854;9.158;2023-05-10T09:11:58;13.70;99.90
14016;DHT22;7083;48.854;9.158;2023-05-10T09:14:25;14.40;99.90
14016;DHT22;7083;48.854;9.158;2023-05-10T09:16:54;14.50;99.90
14016;DHT22;7083;48.854;9.158;2023-05-10T09:19:21;14.50;99.90
14016;DHT22;7083;48.854;9.158;2023-05-10T09:21:48;14.50;99.90
14016;DHT22;7083;48.854;9.158;2023-05-10T09:24:15;14.40;99.90
14016;DHT22;7083;48.854;9.158;2023-05-10T09:26:48;14.40;99.90
14016;DHT22;7083;48.854;9.158;2023-05-10T09:29:15;14.40;99.90
14016;DHT22;7083;48.854;9.158;2023-05-10T09:31:46;14.50;99.90
14016;DHT22;7083;48.854;9.158;2023-05-10T09:34:18;14.50;99.90
14016;DHT22;7083;48.854;9.158;2023-05-10T09:36:53;14.60;99.90
14016;DHT22;7083;48.854;9.158;2023-05-10T09:39:20;14.80;99.90
14016;DHT22;7083;48.854;9.158;2023-05-10T09:41:47;14.80;99.90
14016;DHT22;7083;48.854;9.158;2023-05-10T09:44:16;14.80;99.90
14016;DHT22;7083;48.854;9.158;2023-05-10T09:46:49;14.70;99.90
14016;DHT22;7083;48.854;9.158;2023-05-10T09:49:15;14.50;99.90
14016;DHT22;7083;48.854;9.158;2023-05-10T09:51:43;14.40;99.90
14016;DHT22;7083;48.854;9.158;2023-05-10T09:54:11;14.40;99.90
14016;DHT22;7083;48.854;9.158;2023-05-10T09:56:38;14.40;99.90
14016;DHT22;7083;48.854;9.158;2023-05-10T09:59:07;14.30;99.90
14016;DHT22;7083;48.854;9.158;2023-05-10T10:01:34;14.20;99.90
14016;DHT22;7083;48.854;9.158;2023-05-10T10:04:03;14.20;99.90
14016;DHT22;7083;48.854;9.158;2023-05-10T10:06:35;14.30;99.90
14016;DHT22;7083;48.854;9.158;2023-05-10T10:09:04;14.40;99.90
14016;DHT22;7083;48.854;9.158;2023-05-10T10:11:33;14.50;99.90
14016;DHT22;7083;48.854;9.158;2023-05-10T10:14:00;14.50;99.90
14016;DHT22;7083;48.854;9.158;2023-05-10T10:16:28;14.50;99.90
14016;DHT22;7083;48.854;9.158;2023-05-10T10:18:55;14.60;99.90
14016;DHT22;7083;48.854;9.158;2023-05-10T10:21:22;14.70;99.90
14016;DHT22;7083;48.854;9.158;2023-05-10T10:23:49;14.80;99.90
14016;DHT22;7083;48.854;9.158;2023-05-10T10:26:18;15.00;99.90
14016;DHT22;7083;48.854;9.158;2023-05-10T10:28:50;15.20;99.90
14016;DHT22;7083;48.854;9.158;2023-05-10T10:31:26;15.30;99.90
14016;DHT22;7083;48.854;9.158;2023-05-10T10:34:00;15.40;99.90
14016;DHT22;7083;48.854;9.158;2023-05-10T10:36:28;15.30;99.90
14016;DHT22;7083;48.854;9.158;2023-05-10T10:38:59;15.20;99.90
14016;DHT22;7083;48.854;9.158;2023-05-10T10:41:32;15.30;99.90
14016;DHT22;7083;48.854;9.158;2023-05-10T10:44:25;15.40;99.90
14016;DHT22;7083;48.854;9.158;2023-05-10T10:47:03;15.40;99.90
14016;DHT22;7083;48.854;9.158;2023-05-10T10:49:31;15.30;99.90
14016;DHT22;7083;48.854;9.158;2023-05-10T10:52:21;15.40;99.90
14016;DHT22;7083;48.854;9.158;2023-05-10T10:54:53;15.40;99.90
14016;DHT22;7083;48.854;9.158;2023-05-10T10:57:22;15.40;99.90
14016;DHT22;7083;48.854;9.158;2023-05-10T10:59:49;15.50;99.90
14016;DHT22;7083;48.854;9.158;2023-05-10T11:02:33;15.60;99.90
14016;DHT22;7083;48.854;9.158;2023-05-10T11:05:08;15.80;99.90
14016;DHT22;7083;48.854;9.158;2023-05-10T11:07:53;16.10;99.90
14016;DHT22;7083;48.854;9.158;2023-05-10T11:10:20;16.30;99.90
14016;DHT22;7083;48.854;9.158;2023-05-10T11:12:59;16.50;99.90
14016;DHT22;7083;48.854;9.158;2023-05-10T11:15:29;16.80;99.90
14016;DHT22;7083;48.854;9.158;2023-05-10T11:17:56;17.10;99.90
14016;DHT22;7083;48.854;9.158;2023-05-10T11:20:23;17.30;99.90
14016;DHT22;7083;48.854;9.158;2023-05-10T11:23:10;17.40;99.90
14016;DHT22;7083;48.854;9.158;2023-05-10T11:25:41;17.60;97.30
14016;DHT22;7083;48.854;9.158;2023-05-10T11:28:10;17.60;97.90
14016;DHT22;7083;48.854;9.158;2023-05-10T11:30:38;17.60;97.10
14016;DHT22;7083;48.854;9.158;2023-05-10T11:33:05;17.60;94.70
14016;DHT22;7083;48.854;9.158;2023-05-10T11:35:37;17.60;94.00
14016;DHT22;7083;48.854;9.158;2023-05-10T11:38:06;17.60;94.30
14016;DHT22;7083;48.854;9.158;2023-05-10T11:40:33;17.60;94.30
14016;DHT22;7083;48.854;9.158;2023-05-10T11:42:59;17.80;92.60
14016;DHT22;7083;48.854;9.158;2023-05-10T11:45:28;17.80;92.40
14016;DHT22;7083;48.854;9.158;2023-05-10T11:47:55;18.00;94.20
14016;DHT22;7083;48.854;9.158;2023-05-10T11:50:21;18.20;92.10
14016;DHT22;7083;48.854;9.158;2023-05-10T11:52:51;18.30;91.40
14016;DHT22;7083;48.854;9.158;2023-05-10T11:55:17;18.20;91.30
14016;DHT22;7083;48.854;9.158;2023-05-10T11:57:44;18.00;91.20
14016;DHT22;7083;48.854;9.158;2023-05-10T12:00:12;17.90;91.90
14016;DHT22;7083;48.854;9.158;2023-05-10T12:02:40;17.60;91.80
14016;DHT22;7083;48.854;9.158;2023-05-10T12:05:08;17.40;92.40
14016;DHT22;7083;48.854;9.158;2023-05-10T12:07:34;17.30;92.30
14016;DHT22;7083;48.854;9.158;2023-05-10T12:10:09;17.20;93.20
14016;DHT22;7083;48.854;9.158;2023-05-10T12:12:38;17.10;92.10
14016;DHT22;7083;48.854;9.158;2023-05-10T12:15:06;17.00;92.60
14016;DHT22;7083;48.854;9.158;2023-05-10T12:17:37;17.00;92.90
14016;DHT22;7083;48.854;9.158;2023-05-10T12:20:16;17.10;91.60
14016;DHT22;7083;48.854;9.158;2023-05-10T12:22:51;17.20;91.70
14016;DHT22;7083;48.854;9.158;2023-05-10T12:25:18;17.30;90.00
14016;DHT22;7083;48.854;9.158;2023-05-10T12:27:50;17.30;89.10
14016;DHT22;7083;48.854;9.158;2023-05-10T12:30:21;17.10;90.30
14016;DHT22;7083;48.854;9.158;2023-05-10T12:32:48;17.20;89.10
14016;DHT22;7083;48.854;9.158;2023-05-10T12:35:16;17.20;90.00
14016;DHT22;7083;48.854;9.158;2023-05-10T12:37:46;17.40;87.60
14016;DHT22;7083;48.854;9.158;2023-05-10T12:40:13;17.70;85.50
14016;DHT22;7083;48.854;9.158;2023-05-10T12:42:40;17.90;85.00
14016;DHT22;7083;48.854;9.158;2023-05-10T12:45:08;18.10;86.00
14016;DHT22;7083;48.854;9.158;2023-05-10T12:47:35;18.30;84.40
14016;DHT22;7083;48.854;9.158;2023-05-10T12:50:02;18.50;83.20
14016;DHT22;7083;48.854;9.158;2023-05-10T12:52:31;18.70;82.40
14016;DHT22;7083;48.854;9.158;2023-05-10T12:54:58;18.80;82.10
14016;DHT22;7083;48.854;9.158;2023-05-10T12:57:25;18.70;82.30
14016;DHT22;7083;48.854;9.158;2023-05-10T12:59:52;18.80;84.10
14016;DHT22;7083;48.854;9.158;2023-05-10T13:02:18;18.90;82.90
14016;DHT22;7083;48.854;9.158;2023-05-10T13:04:46;19.10;81.60
14016;DHT22;7083;48.854;9.158;2023-05-10T13:07:13;19.20;83.10
14016;DHT22;7083;48.854;9.158;2023-05-10T13:09:41;19.30;80.40
14016;DHT22;7083;48.854;9.158;2023-05-10T13:12:08;19.30;81.50
14016;DHT22;7083;48.854;9.158;2023-05-10T13:14:35;19.30;84.00
14016;DHT22;7083;48.854;9.158;2023-05-10T13:17:02;19.30;85.00
14016;DHT22;7083;48.854;9.158;2023-05-10T13:19:28;19.40;82.70
14016;DHT22;7083;48.854;9.158;2023-05-10T13:21:55;19.30;84.50
14016;DHT22;7083;48.854;9.158;2023-05-10T13:24:22;19.30;88.60
14016;DHT22;7083;48.854;9.158;2023-05-10T13:26:50;19.20;90.30
14016;DHT22;7083;48.854;9.158;2023-05-10T13:29:16;19.20;84.20
14016;DHT22;7083;48.854;9.158;2023-05-10T13:31:43;19.10;82.40
14016;DHT22;7083;48.854;9.158;2023-05-10T13:34:10;19.00;82.70
14016;DHT22;7083;48.854;9.158;2023-05-10T13:36:36;18.90;83.50
14016;DHT22;7083;48.854;9.158;2023-05-10T13:39:03;18.80;85.30
14016;DHT22;7083;48.854;9.158;2023-05-10T13:41:30;18.90;83.30
14016;DHT22;7083;48.854;9.158;2023-05-10T13:43:58;18.90;82.50
14016;DHT22;7083;48.854;9.158;2023-05-10T13:46:25;18.80;82.70
14016;DHT22;7083;48.854;9.158;2023-05-10T13:48:52;18.80;82.40
14016;DHT22;7083;48.854;9.158;2023-05-10T13:51:18;18.80;83.40
14016;DHT22;7083;48.854;9.158;2023-05-10T13:53:45;18.70;81.60
14016;DHT22;7083;48.854;9.158;2023-05-10T13:56:12;18.70;77.90
14016;DHT22;7083;48.854;9.158;2023-05-10T13:58:39;18.70;78.60
14016;DHT22;7083;48.854;9.158;2023-05-10T14:01:08;18.70;79.30
14016;DHT22;7083;48.854;9.158;2023-05-10T14:03:34;18.70;78.40
14016;DHT22;7083;48.854;9.158;2023-05-10T14:06:01;18.60;78.10
14016;DHT22;7083;48.854;9.158;2023-05-10T14:08:28;18.40;79.10
14016;DHT22;7083;48.854;9.158;2023-05-10T14:10:54;18.40;78.90
14016;DHT22;7083;48.854;9.158;2023-05-10T14:13:23;18.40;81.00
14016;DHT22;7083;48.854;9.158;2023-05-10T14:15:50;18.50;80.90
14016;DHT22;7083;48.854;9.158;2023-05-10T14:18:18;18.40;82.10
14016;DHT22;7083;48.854;9.158;2023-05-10T14:20:44;18.60;84.50
14016;DHT22;7083;48.854;9.158;2023-05-10T14:23:11;18.70;85.00
14016;DHT22;7083;48.854;9.158;2023-05-10T14:25:40;18.90;83.80
14016;DHT22;7083;48.854;9.158;2023-05-10T14:28:06;19.10;81.20
14016;DHT22;7083;48.854;9.158;2023-05-10T14:30:33;19.10;80.60
14016;DHT22;7083;48.854;9.158;2023-05-10T14:33:01;19.10;83.30
14016;DHT22;7083;48.854;9.158;2023-05-10T14:35:29;19.20;80.40
14016;DHT22;7083;48.854;9.158;2023-05-10T14:37:57;19.20;78.60
14016;DHT22;7083;48.854;9.158;2023-05-10T14:40:24;19.20;78.30
14016;DHT22;7083;48.854;9.158;2023-05-10T14:42:51;19.10;77.30
14016;DHT22;7083;48.854;9.158;2023-05-10T14:45:18;19.00;78.10
14016;DHT22;7083;48.854;9.158;2023-05-10T14:47:45;19.00;79.20
14016;DHT22;7083;48.854;9.158;2023-05-10T14:50:12;19.10;79.50
14016;DHT22;7083;48.854;9.158;2023-05-10T14:52:40;19.20;77.90
14016;DHT22;7083;48.854;9.158;2023-05-10T14:55:07;19.20;77.60
14016;DHT22;7083;48.854;9.158;2023-05-10T14:57:34;19.20;76.90
14016;DHT22;7083;48.854;9.158;2023-05-10T15:00:01;19.30;81.20
14016;DHT22;7083;48.854;9.158;2023-05-10T15:02:28;19.60;76.80
14016;DHT22;7083;48.854;9.158;2023-05-10T15:04:54;19.70;75.60
14016;DHT22;7083;48.854;9.158;2023-05-10T15:07:22;19.80;76.80
14016;DHT22;7083;48.854;9.158;2023-05-10T15:09:51;19.80;76.90
14016;DHT22;7083;48.854;9.158;2023-05-10T15:12:18;20.00;78.10
14016;DHT22;7083;48.854;9.158;2023-05-10T15:14:45;20.10;77.90
14016;DHT22;7083;48.854;9.158;2023-05-10T15:17:11;20.10;77.50
14016;DHT22;7083;48.854;9.158;2023-05-10T15:19:38;20.00;80.00
14016;DHT22;7083;48.854;9.158;2023-05-10T15:22:05;20.00;81.60
14016;DHT22;7083;48.854;9.158;2023-05-10T15:24:32;19.90;80.20
14016;DHT22;7083;48.854;9.158;2023-05-10T15:27:00;19.80;77.40
14016;DHT22;7083;48.854;9.158;2023-05-10T15:29:26;19.70;79.90
14016;DHT22;7083;48.854;9.158;2023-05-10T15:31:53;19.70;81.20
14016;DHT22;7083;48.854;9.158;2023-05-10T15:34:20;19.60;83.30
14016;DHT22;7083;48.854;9.158;2023-05-10T15:36:46;19.60;81.90
14016;DHT22;7083;48.854;9.158;2023-05-10T15:39:13;19.60;79.30
14016;DHT22;7083;48.854;9.158;2023-05-10T15:41:39;19.60;80.00
14016;DHT22;7083;48.854;9.158;2023-05-10T15:44:07;19.50;81.80
14016;DHT22;7083;48.854;9.158;2023-05-10T15:46:34;19.60;79.10
14016;DHT22;7083;48.854;9.158;2023-05-10T15:49:03;19.50;80.70
14016;DHT22;7083;48.854;9.158;2023-05-10T15:51:31;19.40;81.00
14016;DHT22;7083;48.854;9.158;2023-05-10T15:53:58;19.40;79.30
14016;DHT22;7083;48.854;9.158;2023-05-10T15:56:24;19.40;79.00
14016;DHT22;7083;48.854;9.158;2023-05-10T15:58:51;19.30;82.00
14016;DHT22;7083;48.854;9.158;2023-05-10T16:01:19;19.50;79.80
14016;DHT22;7083;48.854;9.158;2023-05-10T16:03:46;19.50;79.60
14016;DHT22;7083;48.854;9.158;2023-05-10T16:06:13;19.50;81.60
14016;DHT22;7083;48.854;9.158;2023-05-10T16:08:39;19.50;80.10
14016;DHT22;7083;48.854;9.158;2023-05-10T16:11:06;19.50;76.90
14016;DHT22;7083;48.854;9.158;2023-05-10T16:13:33;19.20;80.70
14016;DHT22;7083;48.854;9.158;2023-05-10T16:16:00;19.20;79.80
14016;DHT22;7083;48.854;9.158;2023-05-10T16:18:28;19.10;78.40
14016;DHT22;7083;48.854;9.158;2023-05-10T16:20:55;18.90;79.60
14016;DHT22;7083;48.854;9.158;2023-05-10T16:23:23;18.70;79.80
14016;DHT22;7083;48.854;9.158;2023-05-10T16:25:50;18.60;79.10
14016;DHT22;7083;48.854;9.158;2023-05-10T16:28:18;18.40;81.30
14016;DHT22;7083;48.854;9.158;2023-05-10T16:30:45;18.30;81.10
14016;DHT22;7083;48.854;9.158;2023-05-10T16:33:12;18.20;80.00
14016;DHT22;7083;48.854;9.158;2023-05-10T16:35:40;18.10;81.00
14016;DHT22;7083;48.854;9.158;2023-05-10T16:38:07;18.00;81.60
14016;DHT22;7083;48.854;9.158;2023-05-10T16:40:34;17.80;84.40
14016;DHT22;7083;48.854;9.158;2023-05-10T16:43:00;17.70;88.30
14016;DHT22;7083;48.854;9.158;2023-05-10T16:45:30;17.60;86.10
14016;DHT22;7083;48.854;9.158;2023-05-10T16:47:56;17.50;85.30
14016;DHT22;7083;48.854;9.158;2023-05-10T16:50:23;17.40;85.90
14016;DHT22;7083;48.854;9.158;2023-05-10T16:52:51;17.30;86.00
14016;DHT22;7083;48.854;9.158;2023-05-10T16:55:18;17.20;85.70
14016;DHT22;7083;48.854;9.158;2023-05-10T16:57:44;17.10;86.40
14016;DHT22;7083;48.854;9.158;2023-05-10T17:00:12;17.00;86.60
14016;DHT22;7083;48.854;9.158;2023-05-10T17:02:39;17.00;86.00
14016;DHT22;7083;48.854;9.158;2023-05-10T17:05:06;16.80;87.10
14016;DHT22;7083;48.854;9.158;2023-05-10T17:07:33;16.80;88.60
14016;DHT22;7083;48.854;9.158;2023-05-10T17:10:01;16.70;90.30
14016;DHT22;7083;48.854;9.158;2023-05-10T17:12:28;16.60;90.10
14016;DHT22;7083;48.854;9.158;2023-05-10T17:14:55;16.60;89.80
14016;DHT22;7083;48.854;9.158;2023-05-10T17:17:21;16.50;89.30
14016;DHT22;7083;48.854;9.158;2023-05-10T17:19:49;16.40;90.90
14016;DHT22;7083;48.854;9.158;2023-05-10T17:22:16;16.40;91.50
14016;DHT22;7083;48.854;9.158;2023-05-10T17:24:44;16.30;90.90
14016;DHT22;7083;48.854;9.158;2023-05-10T17:27:12;16.30;91.40
14016;DHT22;7083;48.854;9.158;2023-05-10T17:29:39;16.20;90.90
14016;DHT22;7083;48.854;9.158;2023-05-10T17:32:06;16.10;90.90
14016;DHT22;7083;48.854;9.158;2023-05-10T17:34:33;16.00;91.10
14016;DHT22;7083;48.854;9.158;2023-05-10T17:37:00;16.00;91.70
14016;DHT22;7083;48.854;9.158;2023-05-10T17:39:27;15.90;92.00
14016;DHT22;7083;48.854;9.158;2023-05-10T17:41:53;15.90;92.00
14016;DHT22;7083;48.854;9.158;2023-05-10T17:44:21;15.80;91.60
14016;DHT22;7083;48.854;9.158;2023-05-10T17:46:49;15.80;91.80
14016;DHT22;7083;48.854;9.158;2023-05-10T17:49:16;15.70;91.70
14016;DHT22;7083;48.854;9.158;2023-05-10T17:51:43;15.60;91.30
14016;DHT22;7083;48.854;9.158;2023-05-10T17:54:12;15.60;91.00
14016;DHT22;7083;48.854;9.158;2023-05-10T17:56:39;15.40;90.90
14016;DHT22;7083;48.854;9.158;2023-05-10T17:59:05;15.30;91.00
14016;DHT22;7083;48.854;9.158;2023-05-10T18:01:33;15.20;91.10
14016;DHT22;7083;48.854;9.158;2023-05-10T18:04:00;15.20;90.70
14016;DHT22;7083;48.854;9.158;2023-05-10T18:06:27;15.10;90.90
14016;DHT22;7083;48.854;9.158;2023-05-10T18:08:53;15.00;91.10
14016;DHT22;7083;48.854;9.158;2023-05-10T18:11:20;14.90;91.50
14016;DHT22;7083;48.854;9.158;2023-05-10T18:13:47;14.80;92.00
14016;DHT22;7083;48.854;9.158;2023-05-10T18:16:13;14.70;93.20
14016;DHT22;7083;48.854;9.158;2023-05-10T18:18:41;14.60;93.60
14016;DHT22;7083;48.854;9.158;2023-05-10T18:21:08;14.50;93.20
14016;DHT22;7083;48.854;9.158;2023-05-10T18:23:35;14.40;93.70
14016;DHT22;7083;48.854;9.158;2023-05-10T18:26:02;14.30;94.60
14016;DHT22;7083;48.854;9.158;2023-05-10T18:28:28;14.20;94.90
14016;DHT22;7083;48.854;9.158;2023-05-10T18:30:55;14.10;95.30
14016;DHT22;7083;48.854;9.158;2023-05-10T18:33:22;14.10;95.70
14016;DHT22;7083;48.854;9.158;2023-05-10T18:35:50;14.00;96.30
14016;DHT22;7083;48.854;9.158;2023-05-10T18:38:17;13.90;96.40
14016;DHT22;7083;48.854;9.158;2023-05-10T18:40:44;13.90;98.40
14016;DHT22;7083;48.854;9.158;2023-05-10T18:43:10;13.80;99.00
14016;DHT22;7083;48.854;9.158;2023-05-10T18:45:37;13.70;99.90
14016;DHT22;7083;48.854;9.158;2023-05-10T18:48:04;13.60;99.90
14016;DHT22;7083;48.854;9.158;2023-05-10T18:50:31;13.60;99.90
14016;DHT22;7083;48.854;9.158;2023-05-10T18:52:59;13.50;99.90
14016;DHT22;7083;48.854;9.158;2023-05-10T18:55:26;13.40;99.40
14016;DHT22;7083;48.854;9.158;2023-05-10T18:57:53;13.40;99.90
14016;DHT22;7083;48.854;9.158;2023-05-10T19:00:19;13.30;99.90
14016;DHT22;7083;48.854;9.158;2023-05-10T19:02:46;13.20;99.90
14016;DHT22;7083;48.854;9.158;2023-05-10T19:05:13;13.20;99.60
14016;DHT22;7083;48.854;9.158;2023-05-10T19:07:41;13.10;99.90
14016;DHT22;7083;48.854;9.158;2023-05-10T19:10:10;13.00;99.90
14016;DHT22;7083;48.854;9.158;2023-05-10T19:12:37;13.00;99.90
14016;DHT22;7083;48.854;9.158;2023-05-10T19:15:06;12.90;99.90
14016;DHT22;7083;48.854;9.158;2023-05-10T19:17:33;12.80;99.90
14016;DHT22;7083;48.854;9.158;2023-05-10T19:20:00;12.70;99.90
14016;DHT22;7083;48.854;9.158;2023-05-10T19:22:27;12.60;99.90
14016;DHT22;7083;48.854;9.158;2023-05-10T19:24:54;12.60;99.90
14016;DHT22;7083;48.854;9.158;2023-05-10T19:27:22;12.50;99.90
14016;DHT22;7083;48.854;9.158;2023-05-10T19:29:49;12.40;99.90
14016;DHT22;7083;48.854;9.158;2023-05-10T19:32:16;12.40;99.90
14016;DHT22;7083;48.854;9.158;2023-05-10T19:34:43;12.30;99.90
14016;DHT22;7083;48.854;9.158;2023-05-10T19:37:10;12.30;99.90
14016;DHT22;7083;48.854;9.158;2023-05-10T19:39:36;12.20;99.90
14016;DHT22;7083;48.854;9.158;2023-05-10T19:42:03;12.20;99.90
14016;DHT22;7083;48.854;9.158;2023-05-10T19:44:32;12.10;99.90
14016;DHT22;7083;48.854;9.158;2023-05-10T19:46:59;12.10;99.90
14016;DHT22;7083;48.854;9.158;2023-05-10T19:49:26;12.10;99.90
14016;DHT22;7083;48.854;9.158;2023-05-10T19:51:52;12.10;99.90
14016;DHT22;7083;48.854;9.158;2023-05-10T19:54:19;12.00;99.90
14016;DHT22;7083;48.854;9.158;2023-05-10T19:56:45;12.00;99.90
14016;DHT22;7083;48.854;9.158;2023-05-10T19:59:12;12.00;99.90
14016;DHT22;7083;48.854;9.158;2023-05-10T20:01:41;11.90;99.90
14016;DHT22;7083;48.854;9.158;2023-05-10T20:04:07;11.90;99.90
14016;DHT22;7083;48.854;9.158;2023-05-10T20:06:34;11.90;99.90
14016;DHT22;7083;48.854;9.158;2023-05-10T20:09:01;11.80;99.90
14016;DHT22;7083;48.854;9.158;2023-05-10T20:11:28;11.80;99.90
14016;DHT22;7083;48.854;9.158;2023-05-10T20:13:54;11.70;99.90
14016;DHT22;7083;48.854;9.158;2023-05-10T20:16:21;11.70;99.90
14016;DHT22;7083;48.854;9.158;2023-05-10T20:18:49;11.70;99.90
14016;DHT22;7083;48.854;9.158;2023-05-10T20:21:16;11.70;99.90
14016;DHT22;7083;48.854;9.158;2023-05-10T20:23:43;11.70;99.90
14016;DHT22;7083;48.854;9.158;2023-05-10T20:26:09;11.70;99.90
14016;DHT22;7083;48.854;9.158;2023-05-10T20:28:36;11.80;99.90
14016;DHT22;7083;48.854;9.158;2023-05-10T20:31:03;11.80;99.90
14016;DHT22;7083;48.854;9.158;2023-05-10T20:33:30;11.80;99.90
14016;DHT22;7083;48.854;9.158;2023-05-10T20:35:58;11.90;99.90
14016;DHT22;7083;48.854;9.158;2023-05-10T20:38:24;11.90;99.90
14016;DHT22;7083;48.854;9.158;2023-05-10T20:40:51;11.90;99.90
14016;DHT22;7083;48.854;9.158;2023-05-10T20:43:17;12.00;99.90
14016;DHT22;7083;48.854;9.158;2023-05-10T20:45:45;12.00;99.90
14016;DHT22;7083;48.854;9.158;2023-05-10T20:48:12;12.00;99.90
14016;DHT22;7083;48.854;9.158;2023-05-10T20:50:39;12.00;99.90
14016;DHT22;7083;48.854;9.158;2023-05-10T20:53:07;12.10;99.90
14016;DHT22;7083;48.854;9.158;2023-05-10T20:55:33;12.10;99.90
14016;DHT22;7083;48.854;9.158;2023-05-10T20:58:00;12.00;99.90
14016;DHT22;7083;48.854;9.158;2023-05-10T21:00:27;12.00;99.90
14016;DHT22;7083;48.854;9.158;2023-05-10T21:02:53;12.00;99.90
14016;DHT22;7083;48.854;9.158;2023-05-10T21:05:21;12.00;99.90
14016;DHT22;7083;48.854;9.158;2023-05-10T21:07:48;12.00;99.90
14016;DHT22;7083;48.854;9.158;2023-05-10T21:10:16;12.00;99.90
14016;DHT22;7083;48.854;9.158;2023-05-10T21:12:42;11.90;99.90
14016;DHT22;7083;48.854;9.158;2023-05-10T21:15:10;12.10;99.90
14016;DHT22;7083;48.854;9.158;2023-05-10T21:17:37;11.90;99.90
14016;DHT22;7083;48.854;9.158;2023-05-10T21:20:04;11.90;99.90
14016;DHT22;7083;48.854;9.158;2023-05-10T21:22:31;11.90;99.90
14016;DHT22;7083;48.854;9.158;2023-05-10T21:24:57;11.90;99.90
14016;DHT22;7083;48.854;9.158;2023-05-10T21:27:26;11.90;99.90
14016;DHT22;7083;48.854;9.158;2023-05-10T21:29:52;11.90;99.90
14016;DHT22;7083;48.854;9.158;2023-05-10T21:32:19;11.80;99.90
14016;DHT22;7083;48.854;9.158;2023-05-10T21:34:46;11.90;99.90
14016;DHT22;7083;48.854;9.158;2023-05-10T21:37:13;11.80;99.90
14016;DHT22;7083;48.854;9.158;2023-05-10T21:39:40;11.80;99.90
14016;DHT22;7083;48.854;9.158;2023-05-10T21:42:06;11.80;99.90
14016;DHT22;7083;48.854;9.158;2023-05-10T21:44:34;11.70;99.90
14016;DHT22;7083;48.854;9.158;2023-05-10T21:47:03;11.70;99.90
14016;DHT22;7083;48.854;9.158;2023-05-10T21:49:30;11.70;99.90
14016;DHT22;7083;48.854;9.158;2023-05-10T21:51:56;11.70;99.90
14016;DHT22;7083;48.854;9.158;2023-05-10T21:54:23;11.70;99.90
14016;DHT22;7083;48.854;9.158;2023-05-10T21:56:50;11.60;99.90
14016;DHT22;7083;48.854;9.158;2023-05-10T21:59:16;11.60;99.90
14016;DHT22;7083;48.854;9.158;2023-05-10T22:01:44;11.60;99.90
14016;DHT22;7083;48.854;9.158;2023-05-10T22:04:11;11.60;99.90
14016;DHT22;7083;48.854;9.158;2023-05-10T22:06:38;11.60;99.90
14016;DHT22;7083;48.854;9.158;2023-05-10T22:09:04;11.70;99.90
14016;DHT22;7083;48.854;9.158;2023-05-10T22:11:31;11.70;99.90
14016;DHT22;7083;48.854;9.158;2023-05-10T22:13:58;11.70;99.90
14016;DHT22;7083;48.854;9.158;2023-05-10T22:16:24;11.60;99.90
14016;DHT22;7083;48.854;9.158;2023-05-10T22:18:52;11.60;99.90
14016;DHT22;7083;48.854;9.158;2023-05-10T22:21:19;11.60;99.90
14016;DHT22;7083;48.854;9.158;2023-05-10T22:23:46;11.60;99.90
14016;DHT22;7083;48.854;9.158;2023-05-10T22:26:13;11.60;99.90
14016;DHT22;7083;48.854;9.158;2023-05-10T22:28:39;11.60;99.90
14016;DHT22;7083;48.854;9.158;2023-05-10T22:31:08;11.50;99.90
14016;DHT22;7083;48.854;9.158;2023-05-10T22:33:35;11.50;99.90
14016;DHT22;7083;48.854;9.158;2023-05-10T22:36:04;11.50;99.90
14016;DHT22;7083;48.854;9.158;2023-05-10T22:38:31;11.50;99.90
14016;DHT22;7083;48.854;9.158;2023-05-10T22:40:57;11.50;99.90
14016;DHT22;7083;48.854;9.158;2023-05-10T22:43:24;11.40;99.90
14016;DHT22;7083;48.854;9.158;2023-05-10T22:45:50;11.40;99.90
14016;DHT22;7083;48.854;9.158;2023-05-10T22:48:18;11.40;99.90
14016;DHT22;7083;48.854;9.158;2023-05-10T22:50:45;11.40;99.90
14016;DHT22;7083;48.854;9.158;2023-05-10T22:53:13;11.30;99.90
14016;DHT22;7083;48.854;9.158;2023-05-10T22:55:40;11.30;99.90
14016;DHT22;7083;48.854;9.158;2023-05-10T22:58:06;11.30;99.90
14016;DHT22;7083;48.854;9.158;2023-05-10T23:00:33;11.30;99.90
14016;DHT22;7083;48.854;9.158;2023-05-10T23:03:00;11.20;99.90
14016;DHT22;7083;48.854;9.158;2023-05-10T23:05:26;11.20;99.90
14016;DHT22;7083;48.854;9.158;2023-05-10T23:07:53;11.20;99.90
14016;DHT22;7083;48.854;9.158;2023-05-10T23:10:22;11.20;99.90
14016;DHT22;7083;48.854;9.158;2023-05-10T23:12:49;11.10;99.90
14016;DHT22;7083;48.854;9.158;2023-05-10T23:15:16;11.10;99.90
14016;DHT22;7083;48.854;9.158;2023-05-10T23:17:42;11.10;99.90
14016;DHT22;7083;48.854;9.158;2023-05-10T23:20:10;11.00;99.90
14016;DHT22;7083;48.854;9.158;2023-05-10T23:22:37;11.00;99.90
14016;DHT22;7083;48.854;9.158;2023-05-10T23:25:05;11.00;99.90
14016;DHT22;7083;48.854;9.158;2023-05-10T23:27:33;10.90;99.90
14016;DHT22;7083;48.854;9.158;2023-05-10T23:30:00;10.80;99.90
14016;DHT22;7083;48.854;9.158;2023-05-10T23:32:27;10.90;99.90
14016;DHT22;7083;48.854;9.158;2023-05-10T23:34:54;10.80;99.90
14016;DHT22;7083;48.854;9.158;2023-05-10T23:37:20;10.80;99.90
14016;DHT22;7083;48.854;9.158;2023-05-10T23:39:47;10.80;99.90
14016;DHT22;7083;48.854;9.158;2023-05-10T23:42:14;10.80;99.90
14016;DHT22;7083;48.854;9.158;2023-05-10T23:44:42;10.80;99.90
14016;DHT22;7083;48.854;9.158;2023-05-10T23:47:08;10.80;99.90
14016;DHT22;7083;48.854;9.158;2023-05-10T23:49:35;10.80;99.90
14016;DHT22;7083;48.854;9.158;2023-05-10T23:52:02;10.80;99.90
14016;DHT22;7083;48.854;9.158;2023-05-10T23:54:29;10.90;99.90
14016;DHT22;7083;48.854;9.158;2023-05-10T23:56:55;10.90;99.90
14016;DHT22;7083;48.854;9.158;2023-05-10T23:59:22;10.90;99.90
